CheckWX is a tool to help pilots better visualize weather data.  It is not intended as a substitute for an official pre-flight weather briefing.

21:38:32 UTC

RCTP TAF
Taiwan Taoyuan International Airport
Taipei, Taiwan
TAF RCTP 201700Z 2018/2124 22012KT 6000 FEW007 BKN012 TEMPO 2018/2022 2500 BR SCT003 BKN005 OVC010 BECMG 2022/2024 FEW008 BKN032 TEMPO 2104/2110 25015KT SCT007 BKN014 TEMPO 2114/2120 32008KT 4000 BR FEW006 BKN010

Mar-20@
18:00 UTC

Mar-20 @ 18:00 UTC

Mar-20@
22:00 UTC

Mar-20 @ 22:00 UTC

TAF RCTP 201700Z 2018/2124 22012KT 6000 FEW007 BKN012
Wind
  • 220° at 12 KTS
Cloud Levels
  • Few at 700' AGL
  • Broken at 1,200' AGL

Mar-20@
18:00 UTC

Mar-20 @ 18:00 UTC

Mar-20@
22:00 UTC

Mar-20 @ 22:00 UTC

TEMPO 2018/2022 2500 BR SCT003 BKN005 OVC010

Temporary

Temporary Changes expected for less than half the time period

Conditions
Mist
Cloud Levels
  • Scattered at 300' AGL
  • Broken at 500' AGL
  • Overcast at 1,000' AGL

Mar-20@
22:00 UTC

Mar-20 @ 22:00 UTC

Mar-22@
00:00 UTC

Mar-22 @ 00:00 UTC

BECMG 2022/2024 FEW008 BKN032

Becoming

Becoming Conditions expected by Thu, Mar 21, 2019 @ 00:00 UTC

Wind
  • 220° at 12 KTS
Cloud Levels
  • Few at 800' AGL
  • Broken at 3,200' AGL

Mar-21@
04:00 UTC

Mar-21 @ 04:00 UTC

Mar-21@
10:00 UTC

Mar-21 @ 10:00 UTC

TEMPO 2104/2110 25015KT SCT007 BKN014

Temporary

Temporary Changes expected for less than half the time period

Wind
  • 250° at 15 KTS
Cloud Levels
  • Scattered at 700' AGL
  • Broken at 1,400' AGL

Mar-21@
14:00 UTC

Mar-21 @ 14:00 UTC

Mar-21@
20:00 UTC

Mar-21 @ 20:00 UTC

TEMPO 2114/2120 32008KT 4000 BR FEW006 BKN010

Temporary

Temporary Changes expected for less than half the time period

Wind
  • 320° at 8 KTS
Conditions
Mist
Cloud Levels
  • Few at 600' AGL
  • Broken at 1,000' AGL